Time;durP1;ratioP1;P1;durP2;ratioP2;P2;SDS_P1;SDS_P2;PMS_P1;PMS_P2;Temp;Humidity;BMP_temperature;BMP_pressure;BME280_temperature;BME280_humidity;BME280_pressure;Samples;Min_cycle;Max_cycle;Signal;HPM_P1;HPM_P2
2023/12/17 00:01:55;;;;;;;0.20;0.20;;;;;;;;;;6244317;28;20776;-77
2023/12/17 00:04:56;;;;;;;0.20;0.20;;;;;;;;;;6248290;28;20049;-77
2023/12/17 00:07:56;;;;;;;0.20;0.20;;;;;;;;;;6256524;28;20025;-77
2023/12/17 00:10:57;;;;;;;0.20;0.20;;;;;;;;;;6249313;28;20017;-76
2023/12/17 00:13:57;;;;;;;0.20;0.20;;;;;;;;;;6260125;28;20035;-81
2023/12/17 00:16:58;;;;;;;0.17;0.17;;;;;;;;;;6255698;28;20562;-80
2023/12/17 00:19:58;;;;;;;0.20;0.20;;;;;;;;;;6264976;28;20032;-81
2023/12/17 00:22:58;;;;;;;0.20;0.20;;;;;;;;;;6259290;28;20014;-81
2023/12/17 00:25:58;;;;;;;0.20;0.20;;;;;;;;;;6260466;28;20468;-80
2023/12/17 00:28:59;;;;;;;0.20;0.20;;;;;;;;;;6258740;28;20091;-80
2023/12/17 00:31:59;;;;;;;0.20;0.20;;;;;;;;;;6252355;28;20063;-80
2023/12/17 00:34:59;;;;;;;0.20;0.20;;;;;;;;;;6256616;28;20689;-80
2023/12/17 00:37:59;;;;;;;0.20;0.20;;;;;;;;;;6259888;28;20056;-80
2023/12/17 00:41:00;;;;;;;0.20;0.20;;;;;;;;;;6257239;28;20060;-81
2023/12/17 00:44:00;;;;;;;0.20;0.20;;;;;;;;;;6246241;28;20032;-81
2023/12/17 00:47:02;;;;;;;0.20;0.20;;;;;;;;;;6260510;28;20050;-82
2023/12/17 00:50:02;;;;;;;0.20;0.20;;;;;;;;;;6260581;28;20023;-81
2023/12/17 00:53:03;;;;;;;0.20;0.20;;;;;;;;;;6255725;28;20009;-81
2023/12/17 00:56:03;;;;;;;0.20;0.20;;;;;;;;;;6250869;28;20514;-80
2023/12/17 00:59:03;;;;;;;0.20;0.20;;;;;;;;;;6271000;28;20390;-81
2023/12/17 01:02:04;;;;;;;0.20;0.20;;;;;;;;;;6293945;28;20016;-81
2023/12/17 01:05:04;;;;;;;0.20;0.20;;;;;;;;;;6252381;28;20120;-81
2023/12/17 01:08:04;;;;;;;0.20;0.20;;;;;;;;;;6248964;28;20029;-80
2023/12/17 01:11:05;;;;;;;0.20;0.20;;;;;;;;;;6258622;28;20052;-80
2023/12/17 01:14:05;;;;;;;0.10;0.10;;;;;;;;;;6253747;28;20502;-81
2023/12/17 01:17:07;;;;;;;0.20;0.20;;;;;;;;;;6255120;28;20025;-81
2023/12/17 01:20:08;;;;;;;0.20;0.20;;;;;;;;;;6266469;28;20014;-80
2023/12/17 01:23:08;;;;;;;0.20;0.20;;;;;;;;;;6269845;28;20033;-77
2023/12/17 01:26:08;;;;;;;0.20;0.20;;;;;;;;;;6267075;28;20040;-77
2023/12/17 01:29:09;;;;;;;0.20;0.20;;;;;;;;;;6276223;28;20071;-77
2023/12/17 01:32:09;;;;;;;0.20;0.20;;;;;;;;;;6267123;28;20028;-77
2023/12/17 01:35:09;;;;;;;0.20;0.20;;;;;;;;;;6260898;28;20040;-77
2023/12/17 01:38:10;;;;;;;0.20;0.20;;;;;;;;;;6245929;28;20387;-77
2023/12/17 01:41:10;;;;;;;0.20;0.20;;;;;;;;;;6257966;28;20021;-77
2023/12/17 01:44:11;;;;;;;0.20;0.20;;;;;;;;;;6254083;28;20036;-77
2023/12/17 01:47:11;;;;;;;0.20;0.20;;;;;;;;;;6257312;28;20076;-77
2023/12/17 01:50:12;;;;;;;0.20;0.20;;;;;;;;;;6258711;28;20048;-76
2023/12/17 01:53:12;;;;;;;0.20;0.20;;;;;;;;;;6253229;28;20048;-77
2023/12/17 01:56:14;;;;;;;0.20;0.20;;;;;;;;;;6253027;28;20022;-77
2023/12/17 01:59:14;;;;;;;0.20;0.20;;;;;;;;;;6250986;28;20027;-76
2023/12/17 02:02:16;;;;;;;0.13;0.13;;;;;;;;;;6259797;28;20033;-77
2023/12/17 02:05:17;;;;;;;0.20;0.20;;;;;;;;;;6265142;28;20049;-76
2023/12/17 02:08:17;;;;;;;0.20;0.20;;;;;;;;;;6245358;28;20430;-76
2023/12/17 02:11:17;;;;;;;0.20;0.20;;;;;;;;;;6261888;28;20017;-77
2023/12/17 02:14:17;;;;;;;0.20;0.20;;;;;;;;;;6271830;28;20013;-76
2023/12/17 02:17:24;;;;;;;0.20;0.20;;;;;;;;;;6260334;28;20410;-76
2023/12/17 02:20:24;;;;;;;0.20;0.20;;;;;;;;;;6243456;28;20044;-76
2023/12/17 02:23:25;;;;;;;0.20;0.20;;;;;;;;;;6264972;28;20025;-77
2023/12/17 02:26:25;;;;;;;0.20;0.20;;;;;;;;;;6269206;28;20456;-76
2023/12/17 02:29:25;;;;;;;0.10;0.10;;;;;;;;;;6269472;28;20040;-76
2023/12/17 02:32:26;;;;;;;0.20;0.20;;;;;;;;;;6259508;28;20029;-76
2023/12/17 02:35:26;;;;;;;0.20;0.20;;;;;;;;;;6247975;28;20031;-76
2023/12/17 02:38:26;;;;;;;0.17;0.17;;;;;;;;;;6255499;28;20449;-76
2023/12/17 02:41:26;;;;;;;0.20;0.20;;;;;;;;;;6274376;28;20113;-77
2023/12/17 02:44:26;;;;;;;0.20;0.20;;;;;;;;;;6264306;28;20036;-78
2023/12/17 02:47:27;;;;;;;0.17;0.17;;;;;;;;;;6249168;28;20029;-78
2023/12/17 02:50:28;;;;;;;0.20;0.20;;;;;;;;;;6253092;28;20021;-78
2023/12/17 02:53:28;;;;;;;0.20;0.20;;;;;;;;;;6258431;28;20024;-77
2023/12/17 02:56:28;;;;;;;0.13;0.13;;;;;;;;;;6256096;28;20642;-76
2023/12/17 02:59:29;;;;;;;0.20;0.20;;;;;;;;;;6243977;28;20148;-76
2023/12/17 03:02:29;;;;;;;0.20;0.20;;;;;;;;;;6255743;28;20025;-76
2023/12/17 03:05:29;;;;;;;0.20;0.20;;;;;;;;;;6253774;28;20040;-76
2023/12/17 03:08:29;;;;;;;0.20;0.20;;;;;;;;;;6253358;28;20418;-76
2023/12/17 03:11:30;;;;;;;0.20;0.20;;;;;;;;;;6242650;28;20060;-77
2023/12/17 03:14:31;;;;;;;0.20;0.20;;;;;;;;;;6268237;28;20616;-76
2023/12/17 03:17:31;;;;;;;0.20;0.20;;;;;;;;;;6264498;28;20025;-76
2023/12/17 03:20:31;;;;;;;0.20;0.20;;;;;;;;;;6268900;28;20079;-76
2023/12/17 03:23:32;;;;;;;0.20;0.20;;;;;;;;;;6261306;28;20133;-76
2023/12/17 03:26:32;;;;;;;0.20;0.20;;;;;;;;;;6244972;28;20032;-76
2023/12/17 03:29:32;;;;;;;0.20;0.20;;;;;;;;;;6264682;28;20034;-76
2023/12/17 03:32:33;;;;;;;0.20;0.20;;;;;;;;;;6265864;28;20058;-76
2023/12/17 03:35:33;;;;;;;0.20;0.20;;;;;;;;;;6247746;28;20013;-76
2023/12/17 03:38:33;;;;;;;0.17;0.17;;;;;;;;;;6251648;28;20023;-76
2023/12/17 03:41:33;;;;;;;0.20;0.20;;;;;;;;;;6248210;28;20013;-75
2023/12/17 03:44:34;;;;;;;0.20;0.20;;;;;;;;;;6250490;28;20032;-76
2023/12/17 03:47:36;;;;;;;0.20;0.20;;;;;;;;;;6253614;28;20428;-76
2023/12/17 03:50:36;;;;;;;;;;;;;;;;;;6241546;28;20055;-76
2023/12/17 03:53:36;;;;;;;0.20;0.20;;;;;;;;;;6251042;28;19909;-76
2023/12/17 03:56:36;;;;;;;0.20;0.20;;;;;;;;;;6253286;28;20029;-76
2023/12/17 03:59:37;;;;;;;0.20;0.20;;;;;;;;;;6254445;28;20101;-76
2023/12/17 04:02:38;;;;;;;0.20;0.20;;;;;;;;;;6244766;28;20044;-76
2023/12/17 04:05:38;;;;;;;0.20;0.20;;;;;;;;;;6248908;28;20049;-76
2023/12/17 04:08:38;;;;;;;0.20;0.20;;;;;;;;;;6240918;28;20033;-76
2023/12/17 04:11:38;;;;;;;0.20;0.20;;;;;;;;;;6242353;28;20534;-77
2023/12/17 04:14:39;;;;;;;0.20;0.20;;;;;;;;;;6256202;28;20104;-77
2023/12/17 04:17:39;;;;;;;0.20;0.20;;;;;;;;;;6242292;28;20017;-76
2023/12/17 04:20:39;;;;;;;0.20;0.20;;;;;;;;;;6275080;28;20463;-76
2023/12/17 04:23:40;;;;;;;0.20;0.20;;;;;;;;;;6267862;28;20453;-76
2023/12/17 04:26:40;;;;;;;0.20;0.20;;;;;;;;;;6252616;28;20467;-76
2023/12/17 04:29:41;;;;;;;0.20;0.20;;;;;;;;;;6265264;28;20021;-76
2023/12/17 04:32:41;;;;;;;0.20;0.20;;;;;;;;;;6251474;28;20403;-76
2023/12/17 04:35:41;;;;;;;0.20;0.20;;;;;;;;;;6274563;28;20652;-77
2023/12/17 04:38:42;;;;;;;0.20;0.20;;;;;;;;;;6256682;28;20557;-76
2023/12/17 04:41:42;;;;;;;0.20;0.20;;;;;;;;;;6270083;28;20021;-77
2023/12/17 04:44:42;;;;;;;0.20;0.20;;;;;;;;;;6253011;28;20021;-77
2023/12/17 04:47:42;;;;;;;0.20;0.20;;;;;;;;;;6266583;28;20067;-76
2023/12/17 04:50:43;;;;;;;0.20;0.20;;;;;;;;;;6264109;28;20533;-77
2023/12/17 04:53:43;;;;;;;0.20;0.20;;;;;;;;;;6261515;28;20009;-80
2023/12/17 04:56:43;;;;;;;0.20;0.20;;;;;;;;;;6264425;28;20483;-80
2023/12/17 04:59:43;;;;;;;0.20;0.20;;;;;;;;;;6288110;28;20741;-80
2023/12/17 05:02:44;;;;;;;0.20;0.20;;;;;;;;;;6253889;28;20408;-80
2023/12/17 05:05:44;;;;;;;0.20;0.20;;;;;;;;;;6267484;28;20083;-80
2023/12/17 05:08:44;;;;;;;0.20;0.20;;;;;;;;;;6253957;28;20025;-80
2023/12/17 05:11:44;;;;;;;0.20;0.20;;;;;;;;;;6258112;28;20025;-80
2023/12/17 05:14:45;;;;;;;0.20;0.20;;;;;;;;;;6258782;28;20132;-80
2023/12/17 05:17:45;;;;;;;0.20;0.20;;;;;;;;;;6264989;28;20032;-80
2023/12/17 05:20:46;;;;;;;0.20;0.20;;;;;;;;;;6246526;28;20188;-80
2023/12/17 05:23:46;;;;;;;0.20;0.20;;;;;;;;;;6258562;28;20064;-77
2023/12/17 05:26:46;;;;;;;0.20;0.20;;;;;;;;;;6254911;28;20029;-77
2023/12/17 05:29:46;;;;;;;0.20;0.20;;;;;;;;;;6255774;28;20032;-77
2023/12/17 05:32:47;;;;;;;0.20;0.20;;;;;;;;;;6257450;28;20118;-76
2023/12/17 05:35:47;;;;;;;0.20;0.20;;;;;;;;;;6252219;28;20028;-77
2023/12/17 05:38:48;;;;;;;0.20;0.20;;;;;;;;;;6260210;28;20754;-76
2023/12/17 05:41:48;;;;;;;0.20;0.20;;;;;;;;;;6248500;28;20379;-76
2023/12/17 05:44:48;;;;;;;0.20;0.20;;;;;;;;;;6247043;28;20101;-77
2023/12/17 05:47:48;;;;;;;0.20;0.20;;;;;;;;;;6264704;28;20025;-76
2023/12/17 05:50:49;;;;;;;0.20;0.20;;;;;;;;;;6273351;28;20021;-77
2023/12/17 05:53:49;;;;;;;0.20;0.20;;;;;;;;;;6266418;28;20405;-77
2023/12/17 05:56:49;;;;;;;0.20;0.20;;;;;;;;;;6253242;28;20030;-76
2023/12/17 05:59:49;;;;;;;0.20;0.20;;;;;;;;;;6255207;28;20036;-77
2023/12/17 06:02:50;;;;;;;0.20;0.20;;;;;;;;;;6268059;28;20036;-80
2023/12/17 06:05:51;;;;;;;0.20;0.20;;;;;;;;;;6257590;28;20437;-78
2023/12/17 06:08:51;;;;;;;0.20;0.20;;;;;;;;;;6253741;28;20048;-77
2023/12/17 06:11:51;;;;;;;0.20;0.20;;;;;;;;;;6254485;28;20111;-75
2023/12/17 06:14:52;;;;;;;0.20;0.20;;;;;;;;;;6272269;28;20186;-76
2023/12/17 06:17:52;;;;;;;0.20;0.20;;;;;;;;;;6286097;28;20086;-77
2023/12/17 06:20:52;;;;;;;0.20;0.20;;;;;;;;;;6268072;28;20459;-77
2023/12/17 06:23:57;;;;;;;0.20;0.20;;;;;;;;;;6270094;28;20444;-77
2023/12/17 06:26:57;;;;;;;0.20;0.20;;;;;;;;;;6244874;28;20040;-77
2023/12/17 06:29:57;;;;;;;0.20;0.20;;;;;;;;;;6255449;28;20462;-77
2023/12/17 06:32:58;;;;;;;0.20;0.20;;;;;;;;;;6244200;28;20017;-79
2023/12/17 06:35:58;;;;;;;0.20;0.20;;;;;;;;;;6252019;28;20034;-80
2023/12/17 06:38:59;;;;;;;0.20;0.20;;;;;;;;;;6252192;28;20014;-79
2023/12/17 06:41:59;;;;;;;0.20;0.20;;;;;;;;;;6247683;28;20483;-79
2023/12/17 06:45:01;;;;;;;0.20;0.20;;;;;;;;;;6263190;28;20049;-79
2023/12/17 06:48:01;;;;;;;0.20;0.20;;;;;;;;;;6252078;28;20095;-79
2023/12/17 06:51:02;;;;;;;0.20;0.20;;;;;;;;;;6258419;28;20361;-79
2023/12/17 06:54:02;;;;;;;0.20;0.20;;;;;;;;;;6246819;28;20120;-80
2023/12/17 06:57:03;;;;;;;0.20;0.20;;;;;;;;;;6252376;28;20108;-80
2023/12/17 07:00:03;;;;;;;0.20;0.20;;;;;;;;;;6253719;28;20047;-80
2023/12/17 07:03:03;;;;;;;0.20;0.20;;;;;;;;;;6251528;28;20159;-80
2023/12/17 07:06:04;;;;;;;0.20;0.20;;;;;;;;;;6255275;28;20140;-80
2023/12/17 07:09:04;;;;;;;0.20;0.20;;;;;;;;;;6242661;28;20017;-80
2023/12/17 07:12:06;;;;;;;0.20;0.20;;;;;;;;;;6243916;28;20024;-80
2023/12/17 07:15:07;;;;;;;0.20;0.20;;;;;;;;;;6259656;28;20060;-80
2023/12/17 07:18:07;;;;;;;0.20;0.20;;;;;;;;;;6246352;28;20101;-80
2023/12/17 07:21:07;;;;;;;0.20;0.20;;;;;;;;;;6262277;28;20574;-79
2023/12/17 07:24:07;;;;;;;0.20;0.20;;;;;;;;;;6265539;28;20573;-81
2023/12/17 07:27:08;;;;;;;0.20;0.20;;;;;;;;;;6258002;28;20401;-80
2023/12/17 07:30:08;;;;;;;0.20;0.20;;;;;;;;;;6258395;28;20032;-80
2023/12/17 07:33:08;;;;;;;0.20;0.20;;;;;;;;;;6258060;28;20112;-80
2023/12/17 07:36:09;;;;;;;0.20;0.20;;;;;;;;;;6256523;28;20101;-79
2023/12/17 07:39:09;;;;;;;0.20;0.20;;;;;;;;;;6249404;28;20033;-80
2023/12/17 07:42:09;;;;;;;0.20;0.20;;;;;;;;;;6258417;28;20029;-79
2023/12/17 07:45:10;;;;;;;0.20;0.20;;;;;;;;;;6256722;28;20021;-79
2023/12/17 07:48:10;;;;;;;0.20;0.20;;;;;;;;;;6243212;28;20025;-80
2023/12/17 07:51:10;;;;;;;0.20;0.20;;;;;;;;;;6254366;28;20017;-80
2023/12/17 07:54:11;;;;;;;0.20;0.20;;;;;;;;;;6254111;28;20514;-80
2023/12/17 07:57:11;;;;;;;0.20;0.20;;;;;;;;;;6254831;28;20387;-80
2023/12/17 08:00:11;;;;;;;0.20;0.20;;;;;;;;;;6256926;28;20013;-80
2023/12/17 08:03:12;;;;;;;0.20;0.20;;;;;;;;;;6255429;28;20483;-80
2023/12/17 08:06:13;;;;;;;0.20;0.20;;;;;;;;;;6250794;28;20129;-80
2023/12/17 08:09:15;;;;;;;0.20;0.20;;;;;;;;;;6262585;28;20029;-80
2023/12/17 08:12:16;;;;;;;0.20;0.20;;;;;;;;;;6252226;28;20422;-80
2023/12/17 08:15:16;;;;;;;0.20;0.20;;;;;;;;;;6269404;28;20063;-80
2023/12/17 08:18:16;;;;;;;0.20;0.20;;;;;;;;;;6260183;28;20031;-80
2023/12/17 08:21:17;;;;;;;0.20;0.20;;;;;;;;;;6264957;28;20438;-80
2023/12/17 08:24:17;;;;;;;0.20;0.20;;;;;;;;;;6253171;28;20033;-80
2023/12/17 08:27:17;;;;;;;0.20;0.20;;;;;;;;;;6252919;28;20060;-80
2023/12/17 08:30:18;;;;;;;0.20;0.20;;;;;;;;;;6252345;28;20475;-80
2023/12/17 08:33:18;;;;;;;0.20;0.20;;;;;;;;;;6249475;28;20028;-80
2023/12/17 08:36:19;;;;;;;0.20;0.20;;;;;;;;;;6248671;28;20035;-80
2023/12/17 08:39:20;;;;;;;0.20;0.20;;;;;;;;;;6245380;28;20036;-81
2023/12/17 08:42:21;;;;;;;0.20;0.20;;;;;;;;;;6263651;28;20237;-81
2023/12/17 08:45:21;;;;;;;0.20;0.20;;;;;;;;;;6246591;28;20069;-81
2023/12/17 08:48:22;;;;;;;0.20;0.20;;;;;;;;;;6247687;28;20035;-80
2023/12/17 08:51:22;;;;;;;0.20;0.20;;;;;;;;;;6250197;28;20024;-81
2023/12/17 08:54:23;;;;;;;0.20;0.20;;;;;;;;;;6240894;28;20060;-80
2023/12/17 08:57:23;;;;;;;0.20;0.20;;;;;;;;;;6247130;28;20029;-80
2023/12/17 09:00:23;;;;;;;0.20;0.20;;;;;;;;;;6247024;28;20029;-80
2023/12/17 09:03:24;;;;;;;0.20;0.20;;;;;;;;;;6249732;28;20091;-77
2023/12/17 09:06:24;;;;;;;0.20;0.20;;;;;;;;;;6245370;28;20570;-78
2023/12/17 09:09:25;;;;;;;0.20;0.20;;;;;;;;;;6263015;28;20033;-77
2023/12/17 09:12:25;;;;;;;0.20;0.20;;;;;;;;;;6254983;28;20031;-77
2023/12/17 09:15:25;;;;;;;0.20;0.20;;;;;;;;;;6255788;28;20036;-77
2023/12/17 09:18:25;;;;;;;0.20;0.20;;;;;;;;;;6253858;28;20076;-77
2023/12/17 09:21:26;;;;;;;0.20;0.20;;;;;;;;;;6249955;28;20511;-77
2023/12/17 09:24:26;;;;;;;0.20;0.20;;;;;;;;;;6256577;28;20029;-77
2023/12/17 09:27:26;;;;;;;0.20;0.20;;;;;;;;;;6254395;28;20546;-77
2023/12/17 09:30:27;;;;;;;0.20;0.20;;;;;;;;;;6263924;28;20013;-77
2023/12/17 09:33:27;;;;;;;0.20;0.20;;;;;;;;;;6266405;28;20024;-77
2023/12/17 09:36:27;;;;;;;0.20;0.20;;;;;;;;;;6257218;28;20543;-77
2023/12/17 09:39:27;;;;;;;0.20;0.20;;;;;;;;;;6259071;28;20032;-77
2023/12/17 09:42:28;;;;;;;0.20;0.20;;;;;;;;;;6251959;28;20020;-77
2023/12/17 09:45:29;;;;;;;0.20;0.20;;;;;;;;;;6253305;28;20017;-77
2023/12/17 09:48:29;;;;;;;0.20;0.20;;;;;;;;;;6255588;28;20380;-77
2023/12/17 09:51:32;;;;;;;0.20;0.20;;;;;;;;;;6250179;28;20103;-77
2023/12/17 09:54:32;;;;;;;0.20;0.20;;;;;;;;;;6268754;28;20544;-77
2023/12/17 09:57:33;;;;;;;0.10;0.10;;;;;;;;;;6259558;28;20033;-75
2023/12/17 10:00:33;;;;;;;0.13;0.13;;;;;;;;;;6248918;28;20545;-77
2023/12/17 10:03:33;;;;;;;0.20;0.20;;;;;;;;;;6255193;28;20037;-77
2023/12/17 10:06:34;;;;;;;0.20;0.20;;;;;;;;;;6245349;28;20084;-77
2023/12/17 10:09:37;;;;;;;0.20;0.20;;;;;;;;;;6255716;28;20484;-76
2023/12/17 10:12:37;;;;;;;0.20;0.20;;;;;;;;;;6252492;28;20026;-80
2023/12/17 10:15:38;;;;;;;0.20;0.20;;;;;;;;;;6269669;28;20032;-80
2023/12/17 10:18:38;;;;;;;0.20;0.20;;;;;;;;;;6252075;28;20082;-80
2023/12/17 10:21:38;;;;;;;0.13;0.13;;;;;;;;;;6257496;28;20017;-80
2023/12/17 10:24:40;;;;;;;0.17;0.17;;;;;;;;;;6248386;28;20029;-80
2023/12/17 10:27:41;;;;;;;0.20;0.20;;;;;;;;;;6251422;28;20036;-80
2023/12/17 10:30:41;;;;;;;0.20;0.20;;;;;;;;;;6255095;28;20460;-80
2023/12/17 10:33:47;;;;;;;0.10;0.10;;;;;;;;;;6251138;28;20017;-80
2023/12/17 10:36:48;;;;;;;0.20;0.20;;;;;;;;;;6243505;28;20079;-80
2023/12/17 10:39:51;;;;;;;0.20;0.20;;;;;;;;;;6243586;28;20468;-81
2023/12/17 10:42:54;;;;;;;0.20;0.20;;;;;;;;;;6249283;28;20053;-80
2023/12/17 10:45:55;;;;;;;0.20;0.20;;;;;;;;;;6255412;28;20530;-80
2023/12/17 10:48:56;;;;;;;0.20;0.20;;;;;;;;;;6258772;28;20034;-79
2023/12/17 10:51:56;;;;;;;0.20;0.20;;;;;;;;;;6256840;28;20082;-80
2023/12/17 10:54:57;;;;;;;0.20;0.20;;;;;;;;;;6254965;28;20024;-80
2023/12/17 10:58:03;;;;;;;0.20;0.20;;;;;;;;;;6244963;28;20112;-80
2023/12/17 11:01:04;;;;;;;0.20;0.20;;;;;;;;;;6250644;28;20052;-80
2023/12/17 11:04:05;;;;;;;0.20;0.20;;;;;;;;;;6247649;28;20468;-80
2023/12/17 11:07:05;;;;;;;0.20;0.20;;;;;;;;;;6253225;28;20029;-79
2023/12/17 11:10:06;;;;;;;0.20;0.20;;;;;;;;;;6250357;28;20017;-80
2023/12/17 11:13:07;;;;;;;0.20;0.20;;;;;;;;;;6253414;28;20044;-80
2023/12/17 11:16:28;;;;;;;0.10;0.10;;;;;;;;;;6264500;28;20384;-80
2023/12/17 11:19:29;;;;;;;0.20;0.20;;;;;;;;;;6257435;28;20541;-80
2023/12/17 11:22:33;;;;;;;0.20;0.20;;;;;;;;;;6258200;28;20089;-79
2023/12/17 11:25:34;;;;;;;0.20;0.20;;;;;;;;;;6256378;28;20042;-81
2023/12/17 11:28:35;;;;;;;0.20;0.20;;;;;;;;;;6256429;28;20480;-80
2023/12/17 11:31:35;;;;;;;0.20;0.20;;;;;;;;;;6265653;28;20055;-79
2023/12/17 11:34:36;;;;;;;0.20;0.20;;;;;;;;;;6243504;28;20450;-79
2023/12/17 11:37:36;;;;;;;0.10;0.10;;;;;;;;;;6243024;28;20025;-80
2023/12/17 11:40:37;;;;;;;0.10;0.10;;;;;;;;;;6246595;28;20056;-81
2023/12/17 11:43:38;;;;;;;0.20;0.20;;;;;;;;;;6252540;28;20119;-79
2023/12/17 11:46:38;;;;;;;0.20;0.20;;;;;;;;;;6239746;28;20567;-79
2023/12/17 11:49:38;;;;;;;0.20;0.20;;;;;;;;;;6255112;28;20021;-79
2023/12/17 11:52:38;;;;;;;0.20;0.20;;;;;;;;;;6251769;28;20127;-79
2023/12/17 11:55:43;;;;;;;0.20;0.20;;;;;;;;;;6239873;28;20009;-79
2023/12/17 11:58:50;;;;;;;0.13;0.13;;;;;;;;;;6255724;28;20044;-80
2023/12/17 12:01:53;;;;;;;0.20;0.20;;;;;;;;;;6247960;28;20108;-79
2023/12/17 12:04:55;;;;;;;0.20;0.20;;;;;;;;;;6247026;28;20037;-79
2023/12/17 12:07:57;;;;;;;0.20;0.20;;;;;;;;;;6253576;28;20075;-79
2023/12/17 12:10:57;;;;;;;0.10;0.10;;;;;;;;;;6253956;28;20411;-79
2023/12/17 12:13:57;;;;;;;0.10;0.10;;;;;;;;;;6255162;28;20025;-79
2023/12/17 12:16:58;;;;;;;0.10;0.10;;;;;;;;;;6259433;28;20468;-79
2023/12/17 12:19:59;;;;;;;0.20;0.20;;;;;;;;;;6241430;28;20083;-80
2023/12/17 12:22:59;;;;;;;0.10;0.10;;;;;;;;;;6257209;28;20028;-78
2023/12/17 12:26:00;;;;;;;0.20;0.20;;;;;;;;;;6262045;28;20021;-78
2023/12/17 12:29:01;;;;;;;0.10;0.10;;;;;;;;;;6255826;28;20438;-77
2023/12/17 12:32:05;;;;;;;0.10;0.10;;;;;;;;;;6256843;28;20475;-79
2023/12/17 12:35:18;;;;;;;0.20;0.20;;;;;;;;;;6262848;28;20009;-79
2023/12/17 12:38:23;;;;;;;0.20;0.20;;;;;;;;;;6245840;28;20113;-79
2023/12/17 12:41:23;;;;;;;0.20;0.20;;;;;;;;;;6264241;28;20036;-79
2023/12/17 12:44:23;;;;;;;0.20;0.20;;;;;;;;;;6259789;28;20048;-79
2023/12/17 12:47:24;;;;;;;0.20;0.20;;;;;;;;;;6254207;28;20014;-81
2023/12/17 12:50:24;;;;;;;0.20;0.20;;;;;;;;;;6261216;28;20024;-79
2023/12/17 12:53:25;;;;;;;0.20;0.20;;;;;;;;;;6260640;28;20104;-79
2023/12/17 12:56:25;;;;;;;0.10;0.10;;;;;;;;;;6254017;28;20020;-79
2023/12/17 12:59:25;;;;;;;0.20;0.20;;;;;;;;;;6241714;28;20020;-79
2023/12/17 13:02:26;;;;;;;0.10;0.10;;;;;;;;;;6262987;28;20478;-79
2023/12/17 13:05:26;;;;;;;0.13;0.13;;;;;;;;;;6263971;28;20056;-79
2023/12/17 13:08:26;;;;;;;0.10;0.10;;;;;;;;;;6272516;28;20020;-79
2023/12/17 13:11:26;;;;;;;0.20;0.20;;;;;;;;;;6269602;28;20027;-79
2023/12/17 13:14:27;;;;;;;0.20;0.20;;;;;;;;;;6277290;28;20112;-79
2023/12/17 13:17:27;;;;;;;0.10;0.10;;;;;;;;;;6250044;28;20041;-79
2023/12/17 13:20:27;;;;;;;0.10;0.10;;;;;;;;;;6249542;28;20056;-79
2023/12/17 13:23:28;;;;;;;0.10;0.10;;;;;;;;;;6254229;28;20048;-79
2023/12/17 13:26:28;;;;;;;0.20;0.20;;;;;;;;;;6251189;28;20063;-79
2023/12/17 13:29:28;;;;;;;0.10;0.10;;;;;;;;;;6260093;28;20013;-79
2023/12/17 13:32:29;;;;;;;0.20;0.20;;;;;;;;;;6256722;28;20383;-79
2023/12/17 13:35:29;;;;;;;0.17;0.17;;;;;;;;;;6249665;28;20022;-79
2023/12/17 13:38:29;;;;;;;0.10;0.10;;;;;;;;;;6243166;28;20029;-81
2023/12/17 13:41:29;;;;;;;0.10;0.10;;;;;;;;;;6259360;28;20028;-80
2023/12/17 13:44:30;;;;;;;0.10;0.10;;;;;;;;;;6253754;28;20063;-76
2023/12/17 13:47:30;;;;;;;0.20;0.20;;;;;;;;;;6249852;28;20135;-77
2023/12/17 13:50:30;;;;;;;0.20;0.20;;;;;;;;;;6254927;28;20455;-77
2023/12/17 13:53:30;;;;;;;0.20;0.20;;;;;;;;;;6245075;28;20045;-77
2023/12/17 13:56:31;;;;;;;0.20;0.20;;;;;;;;;;6252887;28;20025;-77
2023/12/17 13:59:32;;;;;;;0.20;0.20;;;;;;;;;;6244684;28;20053;-77
2023/12/17 14:02:32;;;;;;;0.20;0.20;;;;;;;;;;6249069;28;20393;-77
2023/12/17 14:05:32;;;;;;;0.20;0.20;;;;;;;;;;6266452;28;20053;-76
2023/12/17 14:08:33;;;;;;;0.20;0.20;;;;;;;;;;6253416;28;20041;-77
2023/12/17 14:11:33;;;;;;;0.20;0.20;;;;;;;;;;6260877;28;20474;-77
2023/12/17 14:14:34;;;;;;;0.20;0.20;;;;;;;;;;6260974;28;20424;-77
2023/12/17 14:17:34;;;;;;;0.20;0.20;;;;;;;;;;6256636;28;20025;-77
2023/12/17 14:20:34;;;;;;;0.20;0.20;;;;;;;;;;6268131;28;20657;-77
2023/12/17 14:23:35;;;;;;;0.20;0.20;;;;;;;;;;6259887;28;20025;-77
2023/12/17 14:26:35;;;;;;;0.10;0.10;;;;;;;;;;6261599;28;20021;-77
2023/12/17 14:29:36;;;;;;;0.20;0.20;;;;;;;;;;6245091;28;20017;-77
2023/12/17 14:32:36;;;;;;;0.20;0.20;;;;;;;;;;6241862;28;20087;-77
2023/12/17 14:35:37;;;;;;;0.20;0.20;;;;;;;;;;6252731;28;20032;-77
2023/12/17 14:38:37;;;;;;;0.20;0.20;;;;;;;;;;6260487;28;20075;-77
2023/12/17 14:41:37;;;;;;;0.20;0.20;;;;;;;;;;6256139;28;20036;-77
2023/12/17 14:44:38;;;;;;;0.20;0.20;;;;;;;;;;6252695;28;20487;-77
2023/12/17 14:47:38;;;;;;;0.10;0.10;;;;;;;;;;6251892;28;20044;-77
2023/12/17 14:50:38;;;;;;;0.20;0.20;;;;;;;;;;6251416;28;20097;-77
2023/12/17 14:53:38;;;;;;;0.20;0.20;;;;;;;;;;6260282;28;20045;-78
2023/12/17 14:56:39;;;;;;;0.20;0.20;;;;;;;;;;6246333;28;20532;-77
2023/12/17 14:59:39;;;;;;;0.20;0.20;;;;;;;;;;6256151;28;20468;-77
2023/12/17 15:02:39;;;;;;;0.20;0.20;;;;;;;;;;6255000;28;20044;-79
2023/12/17 15:05:39;;;;;;;0.13;0.13;;;;;;;;;;6251211;28;20049;-79
2023/12/17 15:08:40;;;;;;;0.20;0.20;;;;;;;;;;6257968;28;20502;-79
2023/12/17 15:11:40;;;;;;;0.20;0.20;;;;;;;;;;6272422;28;20499;-79
2023/12/17 15:14:40;;;;;;;0.20;0.20;;;;;;;;;;6255191;28;20071;-77
2023/12/17 15:17:40;;;;;;;0.20;0.20;;;;;;;;;;6244941;28;20028;-77
2023/12/17 15:20:42;;;;;;;0.20;0.20;;;;;;;;;;6259622;28;20021;-77
2023/12/17 15:23:42;;;;;;;0.20;0.20;;;;;;;;;;6258778;28;20053;-77
2023/12/17 15:26:42;;;;;;;0.20;0.20;;;;;;;;;;6263683;28;20465;-77
2023/12/17 15:29:43;;;;;;;0.20;0.20;;;;;;;;;;6274075;28;20462;-76
2023/12/17 15:32:43;;;;;;;0.20;0.20;;;;;;;;;;6264870;28;20025;-76
2023/12/17 15:35:44;;;;;;;0.20;0.20;;;;;;;;;;6260466;28;20021;-76
2023/12/17 15:38:44;;;;;;;0.20;0.20;;;;;;;;;;6251903;28;20427;-76
2023/12/17 15:41:45;;;;;;;0.20;0.20;;;;;;;;;;6252293;28;20025;-76
2023/12/17 15:44:45;;;;;;;0.20;0.20;;;;;;;;;;6247688;28;20139;-76
2023/12/17 15:47:46;;;;;;;0.20;0.20;;;;;;;;;;6238170;28;20103;-76
2023/12/17 15:50:46;;;;;;;0.20;0.20;;;;;;;;;;6245529;28;20061;-76
2023/12/17 15:53:50;;;;;;;0.20;0.20;;;;;;;;;;6257503;28;20021;-76
2023/12/17 15:56:50;;;;;;;0.20;0.20;;;;;;;;;;6249204;28;20119;-76
2023/12/17 15:59:50;;;;;;;0.20;0.20;;;;;;;;;;6253742;28;20022;-76
2023/12/17 16:02:51;;;;;;;0.20;0.20;;;;;;;;;;6250716;28;20535;-78
2023/12/17 16:05:51;;;;;;;0.20;0.20;;;;;;;;;;6261590;28;20099;-78
2023/12/17 16:08:51;;;;;;;0.20;0.20;;;;;;;;;;6255688;28;20453;-78
2023/12/17 16:11:51;;;;;;;0.20;0.20;;;;;;;;;;6267533;28;20017;-78
2023/12/17 16:14:53;;;;;;;0.20;0.20;;;;;;;;;;6261365;28;20532;-79
2023/12/17 16:17:53;;;;;;;;;;;;;;;;;;6276115;28;20071;-78
2023/12/17 16:20:55;;;;;;;0.20;0.20;;;;;;;;;;6256604;28;20352;-78
2023/12/17 16:23:55;;;;;;;0.17;0.17;;;;;;;;;;6279976;28;20078;-78
2023/12/17 16:26:55;;;;;;;0.20;0.20;;;;;;;;;;6245619;28;20030;-78
2023/12/17 16:29:55;;;;;;;0.20;0.20;;;;;;;;;;6269974;28;20096;-78
2023/12/17 16:32:56;;;;;;;0.20;0.20;;;;;;;;;;6246260;28;20048;-76
2023/12/17 16:35:56;;;;;;;0.20;0.20;;;;;;;;;;6257187;28;20040;-76
2023/12/17 16:38:56;;;;;;;0.20;0.20;;;;;;;;;;6279201;28;20017;-75
2023/12/17 16:41:57;;;;;;;0.20;0.20;;;;;;;;;;6266916;28;20430;-78
2023/12/17 16:44:57;;;;;;;0.17;0.17;;;;;;;;;;6266591;28;20021;-79
2023/12/17 16:47:58;;;;;;;0.20;0.20;;;;;;;;;;6263183;28;20040;-78
2023/12/17 16:50:58;;;;;;;0.20;0.20;;;;;;;;;;6254976;28;20017;-79
2023/12/17 16:53:58;;;;;;;0.20;0.20;;;;;;;;;;6276898;28;20021;-77
2023/12/17 16:56:59;;;;;;;0.20;0.20;;;;;;;;;;6257044;28;20024;-76
2023/12/17 16:59:59;;;;;;;0.20;0.20;;;;;;;;;;6266845;28;20017;-77
2023/12/17 17:03:02;;;;;;;0.20;0.20;;;;;;;;;;6263061;28;20016;-77
2023/12/17 17:06:03;;;;;;;0.20;0.20;;;;;;;;;;6256680;28;20403;-78
2023/12/17 17:09:03;;;;;;;0.20;0.20;;;;;;;;;;6256137;28;20435;-76
2023/12/17 17:12:04;;;;;;;0.20;0.20;;;;;;;;;;6261390;28;20041;-76
2023/12/17 17:15:07;;;;;;;0.20;0.20;;;;;;;;;;6266284;28;20020;-76
2023/12/17 17:18:08;;;;;;;0.20;0.20;;;;;;;;;;6270538;28;20506;-76
2023/12/17 17:21:09;;;;;;;0.20;0.20;;;;;;;;;;6273015;28;20020;-76
2023/12/17 17:24:10;;;;;;;0.20;0.20;;;;;;;;;;6265949;28;20021;-76
2023/12/17 17:27:10;;;;;;;0.13;0.13;;;;;;;;;;6272091;28;20506;-76
2023/12/17 17:30:11;;;;;;;0.20;0.20;;;;;;;;;;6281194;28;20099;-77
2023/12/17 17:33:12;;;;;;;0.20;0.20;;;;;;;;;;6270666;28;20020;-76
2023/12/17 17:36:12;;;;;;;0.20;0.20;;;;;;;;;;6263795;28;20087;-76
2023/12/17 17:39:12;;;;;;;0.20;0.20;;;;;;;;;;6248805;28;20017;-76
2023/12/17 17:42:12;;;;;;;0.20;0.20;;;;;;;;;;6257582;28;20468;-76
2023/12/17 17:45:13;;;;;;;0.20;0.20;;;;;;;;;;6249807;28;20411;-76
2023/12/17 17:48:13;;;;;;;0.20;0.20;;;;;;;;;;6249533;28;20480;-76
2023/12/17 17:51:13;;;;;;;0.20;0.20;;;;;;;;;;6244078;28;20099;-76
2023/12/17 17:54:14;;;;;;;0.20;0.20;;;;;;;;;;6260573;28;20043;-78
2023/12/17 17:57:16;;;;;;;0.20;0.20;;;;;;;;;;6248918;28;20583;-78
2023/12/17 18:00:16;;;;;;;0.20;0.20;;;;;;;;;;6247243;28;20022;-78
2023/12/17 18:03:17;;;;;;;0.20;0.20;;;;;;;;;;6265321;28;20025;-78